Time;durP1;ratioP1;P1;durP2;ratioP2;P2;SDS_P1;SDS_P2;PMS_P1;PMS_P2;Temp;Humidity;BMP_temperature;BMP_pressure;BME280_temperature;BME280_humidity;BME280_pressure;Samples;Min_cycle;Max_cycle;Signal;HPM_P1;HPM_P2
2022/03/21 00:03:33;;;;;;;24.27;10.82;;;;;;;;;;8497925;27;20486;-81
2022/03/21 00:07:35;;;;;;;31.13;11.40;;;;;;;;;;8497916;28;20051;-82
2022/03/21 00:11:38;;;;;;;23.90;10.95;;;;;;;;;;8497773;28;20490;-81
2022/03/21 00:15:42;;;;;;;30.17;10.90;;;;;;;;;;8498110;28;20506;-81
2022/03/21 00:19:45;;;;;;;25.73;12.00;;;;;;;;;;8497643;28;20039;-82
2022/03/21 00:23:48;;;;;;;;;;;;;;;;;;8497981;28;20043;-81
2022/03/21 00:27:51;;;;;;;27.88;10.57;;;;;;;;;;8497593;28;19919;-81
2022/03/21 00:31:57;;;;;;;34.40;12.23;;;;;;;;;;8497627;28;20039;-81
2022/03/21 00:36:00;;;;;;;29.45;12.30;;;;;;;;;;8497533;28;20047;-82
2022/03/21 00:40:03;;;;;;;20.58;10.70;;;;;;;;;;8497174;28;20043;-82
2022/03/21 00:44:07;;;;;;;25.77;10.75;;;;;;;;;;8497247;28;20047;-82
2022/03/21 00:48:11;;;;;;;33.33;12.05;;;;;;;;;;8497076;28;20039;-82
2022/03/21 00:52:14;;;;;;;36.42;12.02;;;;;;;;;;8497247;28;20410;-83
2022/03/21 00:56:16;;;;;;;27.80;11.77;;;;;;;;;;8497252;28;20043;-82
2022/03/21 01:00:21;;;;;;;30.65;12.85;;;;;;;;;;8496987;28;20047;-83
2022/03/21 01:04:25;;;;;;;26.17;12.07;;;;;;;;;;8496799;27;20061;-82
2022/03/21 01:08:28;;;;;;;29.02;12.63;;;;;;;;;;8496796;28;20043;-81
2022/03/21 01:12:30;;;;;;;27.10;12.18;;;;;;;;;;8500642;27;20092;-82
2022/03/21 01:16:33;;;;;;;31.48;12.35;;;;;;;;;;8503101;27;20054;-82
2022/03/21 01:20:37;;;;;;;32.05;11.80;;;;;;;;;;8502777;27;20112;-82
2022/03/21 01:24:40;;;;;;;27.05;12.57;;;;;;;;;;8502645;27;20043;-82
2022/03/21 01:28:42;;;;;;;28.17;12.10;;;;;;;;;;8509005;27;20408;-82
2022/03/21 01:32:46;;;;;;;31.30;11.57;;;;;;;;;;8540897;27;20474;-82
2022/03/21 01:36:50;;;;;;;30.98;12.23;;;;;;;;;;8529383;27;20046;-83
2022/03/21 01:40:53;;;;;;;26.83;12.18;;;;;;;;;;8517751;27;20049;-88
2022/03/21 01:44:58;;;;;;;38.60;12.88;;;;;;;;;;8520053;27;20047;-85
2022/03/21 01:49:01;;;;;;;28.83;11.80;;;;;;;;;;8501226;27;20088;-85
2022/03/21 01:57:25;;;;;;;29.02;10.98;;;;;;;;;;8531291;27;20042;-83
2022/03/21 02:01:28;;;;;;;30.90;11.80;;;;;;;;;;8545863;27;20123;-87
2022/03/21 02:05:32;;;;;;;29.17;11.43;;;;;;;;;;8564250;27;20409;-82
2022/03/21 02:09:37;;;;;;;28.63;11.98;;;;;;;;;;8570139;27;20053;-82
2022/03/21 02:13:40;;;;;;;32.25;12.13;;;;;;;;;;8569996;27;20400;-83
2022/03/21 02:17:46;;;;;;;29.52;11.30;;;;;;;;;;8561276;27;20035;-83
2022/03/21 02:22:00;;;;;;;28.15;10.82;;;;;;;;;;8503847;27;20036;-83
2022/03/21 02:26:07;;;;;;;31.50;12.27;;;;;;;;;;8533661;27;20462;-83
2022/03/21 02:30:11;;;;;;;35.80;11.88;;;;;;;;;;8528325;27;20042;-89
2022/03/21 02:34:13;;;;;;;32.40;12.98;;;;;;;;;;8510826;27;20422;-83
2022/03/21 02:38:18;;;;;;;26.20;10.70;;;;;;;;;;8524296;27;20050;-83
2022/03/21 02:42:22;;;;;;;34.70;12.00;;;;;;;;;;8500591;27;20035;-83
2022/03/21 02:46:25;;;;;;;30.25;12.07;;;;;;;;;;8499121;27;20146;-83
2022/03/21 02:50:33;;;;;;;26.15;12.02;;;;;;;;;;8502008;27;20057;-84
2022/03/21 02:54:36;;;;;;;28.02;11.05;;;;;;;;;;8510196;27;20046;-83
2022/03/21 02:58:40;;;;;;;32.25;10.63;;;;;;;;;;8568789;27;20046;-82
2022/03/21 03:02:43;;;;;;;21.13;11.07;;;;;;;;;;8559686;27;20038;-83
2022/03/21 03:06:45;;;;;;;27.98;10.73;;;;;;;;;;8527575;27;20038;-88
2022/03/21 03:10:48;;;;;;;24.90;11.98;;;;;;;;;;8498645;27;20039;-84
2022/03/21 03:14:52;;;;;;;30.55;12.50;;;;;;;;;;8500206;27;20509;-84
2022/03/21 03:18:54;;;;;;;33.53;12.35;;;;;;;;;;8560093;27;20068;-82
2022/03/21 03:22:59;;;;;;;26.92;11.98;;;;;;;;;;8567877;27;20046;-83
2022/03/21 03:27:02;;;;;;;30.75;12.82;;;;;;;;;;8559690;27;20499;-82
2022/03/21 03:31:06;;;;;;;34.08;13.18;;;;;;;;;;8532982;27;20042;-82
2022/03/21 03:35:10;;;;;;;33.28;13.00;;;;;;;;;;8532484;27;20054;-82
2022/03/21 03:39:12;;;;;;;27.20;11.82;;;;;;;;;;8533007;27;20043;-82
2022/03/21 03:43:16;;;;;;;32.08;11.55;;;;;;;;;;8532780;27;20042;-82
2022/03/21 03:47:20;;;;;;;26.30;11.20;;;;;;;;;;8532876;27;20042;-82
2022/03/21 03:51:22;;;;;;;31.13;11.32;;;;;;;;;;8532553;27;20043;-82
2022/03/21 03:55:26;;;;;;;26.38;11.27;;;;;;;;;;8508413;27;20118;-83
2022/03/21 03:59:29;;;;;;;25.02;11.95;;;;;;;;;;8499700;27;20053;-82
2022/03/21 04:03:48;;;;;;;26.98;10.57;;;;;;;;;;8504142;27;20405;-83
2022/03/21 04:07:51;;;;;;;26.77;10.75;;;;;;;;;;8532463;27;20042;-82
2022/03/21 04:11:53;;;;;;;23.77;10.90;;;;;;;;;;8532061;27;20126;-82
2022/03/21 04:15:57;;;;;;;27.52;11.70;;;;;;;;;;8531981;27;20043;-86
2022/03/21 04:20:02;;;;;;;28.13;11.77;;;;;;;;;;8532039;27;20397;-83
2022/03/21 04:24:05;;;;;;;35.70;15.65;;;;;;;;;;8532034;27;20039;-82
2022/03/21 04:28:09;;;;;;;40.63;14.80;;;;;;;;;;8531722;27;20050;-84
2022/03/21 04:32:12;;;;;;;33.85;13.38;;;;;;;;;;8531865;27;20403;-84
2022/03/21 04:36:16;;;;;;;31.67;12.85;;;;;;;;;;8531675;27;20042;-83
2022/03/21 04:40:19;;;;;;;33.50;14.73;;;;;;;;;;8531621;27;20043;-83
2022/03/21 04:44:21;;;;;;;40.72;19.52;;;;;;;;;;8515482;27;20051;-83
2022/03/21 04:48:24;;;;;;;40.65;18.20;;;;;;;;;;8502653;27;20088;-83
2022/03/21 04:52:28;;;;;;;44.25;20.00;;;;;;;;;;8503788;27;20471;-82
2022/03/21 04:56:30;;;;;;;39.33;17.13;;;;;;;;;;8512455;27;20490;-83
2022/03/21 05:00:33;;;;;;;33.30;14.68;;;;;;;;;;8511202;27;20043;-82
2022/03/21 05:04:35;;;;;;;29.30;12.90;;;;;;;;;;8503157;27;20051;-82
2022/03/21 05:08:39;;;;;;;29.15;13.10;;;;;;;;;;8503083;27;20046;-82
2022/03/21 05:12:42;;;;;;;30.05;11.88;;;;;;;;;;8503515;27;20537;-82
2022/03/21 05:16:45;;;;;;;33.03;14.45;;;;;;;;;;8527933;27;20481;-83
2022/03/21 05:20:47;;;;;;;40.58;15.85;;;;;;;;;;8537361;27;20050;-83
2022/03/21 05:37:51;;;;;;;31.38;14.70;;;;;;;;;;8523190;27;20049;-90
2022/03/21 05:41:55;;;;;;;32.63;13.35;;;;;;;;;;8512858;27;20043;-85
2022/03/21 05:45:59;;;;;;;32.42;14.38;;;;;;;;;;8536309;27;20091;-83
2022/03/21 05:50:02;;;;;;;34.95;15.70;;;;;;;;;;8536348;27;20050;-84
2022/03/21 05:54:08;;;;;;;43.70;16.92;;;;;;;;;;8517909;27;20463;-84
2022/03/21 05:58:12;;;;;;;37.22;14.77;;;;;;;;;;8501555;27;20431;-84
2022/03/21 06:02:16;;;;;;;30.17;12.57;;;;;;;;;;8502280;27;20073;-85
2022/03/21 06:06:18;;;;;;;39.03;16.20;;;;;;;;;;8501313;27;20147;-85
2022/03/21 06:10:22;;;;;;;42.63;17.88;;;;;;;;;;8501215;27;20050;-85
2022/03/21 06:14:26;;;;;;;32.80;14.15;;;;;;;;;;8501138;27;20050;-84
2022/03/21 06:18:29;;;;;;;42.42;16.98;;;;;;;;;;8500984;27;20051;-84
2022/03/21 06:22:31;;;;;;;42.95;17.00;;;;;;;;;;8500838;27;20374;-84
2022/03/21 06:26:34;;;;;;;61.40;23.23;;;;;;;;;;8500760;27;20051;-84
2022/03/21 06:30:38;;;;;;;47.85;20.10;;;;;;;;;;8500640;27;20074;-84
2022/03/21 06:34:44;;;;;;;44.47;20.58;;;;;;;;;;8499144;27;20304;-84
2022/03/21 06:38:47;;;;;;;44.00;21.17;;;;;;;;;;8500471;27;20456;-85
2022/03/21 06:42:50;;;;;;;23.27;11.40;;;;;;;;;;8513328;27;20038;-84
2022/03/21 06:46:56;;;;;;;21.98;10.35;;;;;;;;;;8498448;27;20075;-84
2022/03/21 06:50:59;;;;;;;30.65;13.65;;;;;;;;;;8504302;27;20046;-83
2022/03/21 06:55:02;;;;;;;25.55;12.15;;;;;;;;;;8534313;27;20053;-83
2022/03/21 06:59:05;;;;;;;37.28;15.75;;;;;;;;;;8534777;27;20463;-83
2022/03/21 07:03:09;;;;;;;30.80;13.65;;;;;;;;;;8533659;27;20058;-83
2022/03/21 07:07:12;;;;;;;24.20;11.32;;;;;;;;;;8533596;27;20035;-83
2022/03/21 07:11:15;;;;;;;52.47;19.48;;;;;;;;;;8532961;27;20406;-84
2022/03/21 07:15:18;;;;;;;53.50;18.90;;;;;;;;;;8533482;27;20050;-83
2022/03/21 07:19:22;;;;;;;28.30;12.50;;;;;;;;;;8533909;27;20051;-84
2022/03/21 07:23:24;;;;;;;21.80;11.13;;;;;;;;;;8533534;27;20053;-84
2022/03/21 07:27:27;;;;;;;22.73;13.25;;;;;;;;;;8533050;27;20046;-84
2022/03/21 07:31:30;;;;;;;17.98;9.52;;;;;;;;;;8532922;27;20050;-84
2022/03/21 07:35:36;;;;;;;17.60;8.98;;;;;;;;;;8532987;27;20493;-84
2022/03/21 07:39:39;;;;;;;18.33;8.75;;;;;;;;;;8533389;27;20511;-84
2022/03/21 07:43:42;;;;;;;17.50;8.65;;;;;;;;;;8532609;27;20403;-84
2022/03/21 07:47:45;;;;;;;16.05;8.80;;;;;;;;;;8532553;27;20039;-83
2022/03/21 07:51:49;;;;;;;15.63;8.48;;;;;;;;;;8532805;27;20039;-83
2022/03/21 07:55:53;;;;;;;16.88;9.25;;;;;;;;;;8532483;27;20114;-83
2022/03/21 07:59:56;;;;;;;14.18;8.40;;;;;;;;;;8532324;27;20047;-84
2022/03/21 08:04:00;;;;;;;31.48;14.98;;;;;;;;;;8532160;27;20057;-83
2022/03/21 08:08:04;;;;;;;16.23;8.98;;;;;;;;;;8532309;27;20545;-84
2022/03/21 08:12:08;;;;;;;16.35;8.93;;;;;;;;;;8533392;27;20546;-83
2022/03/21 08:16:11;;;;;;;17.15;8.45;;;;;;;;;;8532147;27;20421;-83
2022/03/21 08:20:14;;;;;;;15.88;8.98;;;;;;;;;;8534150;27;20049;-83
2022/03/21 08:24:18;;;;;;;15.45;8.07;;;;;;;;;;8539429;27;20050;-83
2022/03/21 08:28:21;;;;;;;17.42;8.30;;;;;;;;;;8539000;27;20039;-83
2022/03/21 08:32:24;;;;;;;15.27;10.30;;;;;;;;;;8538824;27;20046;-82
2022/03/21 08:36:27;;;;;;;15.27;9.93;;;;;;;;;;8539222;27;20061;-83
2022/03/21 08:40:31;;;;;;;18.80;9.18;;;;;;;;;;8538507;27;20038;-83
2022/03/21 08:44:34;;;;;;;15.65;8.75;;;;;;;;;;8539002;27;20046;-83
2022/03/21 08:52:58;;;;;;;12.55;7.07;;;;;;;;;;8538150;27;20451;-84
2022/03/21 08:57:04;;;;;;;23.40;9.57;;;;;;;;;;8538847;27;20047;-84
2022/03/21 09:01:07;;;;;;;14.77;9.40;;;;;;;;;;8538342;27;20442;-84
2022/03/21 09:05:12;;;;;;;16.35;6.90;;;;;;;;;;8537564;27;20050;-84
2022/03/21 09:09:15;;;;;;;20.23;11.55;;;;;;;;;;8538336;27;20389;-84
2022/03/21 09:13:19;;;;;;;15.73;8.40;;;;;;;;;;8538223;27;20394;-83
2022/03/21 09:17:22;;;;;;;19.50;11.40;;;;;;;;;;8537689;27;20284;-84
2022/03/21 09:21:25;;;;;;;19.42;9.82;;;;;;;;;;8537178;27;20042;-84
2022/03/21 09:25:29;;;;;;;13.82;8.43;;;;;;;;;;8518823;27;20042;-83
2022/03/21 09:29:33;;;;;;;11.20;7.68;;;;;;;;;;8536890;27;20435;-84
2022/03/21 09:33:39;;;;;;;18.60;10.82;;;;;;;;;;8536576;27;20039;-84
2022/03/21 09:37:42;;;;;;;15.32;8.55;;;;;;;;;;8536650;27;20454;-84
2022/03/21 09:41:47;;;;;;;15.07;7.82;;;;;;;;;;8536497;27;20042;-84
2022/03/21 09:45:52;;;;;;;14.32;8.30;;;;;;;;;;8536440;27;20122;-84
2022/03/21 09:49:57;;;;;;;17.20;8.57;;;;;;;;;;8536353;27;20091;-83
2022/03/21 09:54:01;;;;;;;14.15;8.57;;;;;;;;;;8536395;27;20466;-83
2022/03/21 09:58:05;;;;;;;14.07;7.95;;;;;;;;;;8537804;27;20038;-84
2022/03/21 10:02:10;;;;;;;15.32;8.13;;;;;;;;;;8536129;27;20078;-84
2022/03/21 10:06:33;;;;;;;13.25;7.63;;;;;;;;;;8535503;27;20059;-84
2022/03/21 10:10:35;;;;;;;16.80;8.98;;;;;;;;;;8535575;27;20052;-84
2022/03/21 10:14:40;;;;;;;15.88;8.45;;;;;;;;;;8535612;27;20173;-84
2022/03/21 10:18:59;;;;;;;14.57;8.10;;;;;;;;;;8535833;27;20129;-83
2022/03/21 10:23:19;;;;;;;15.85;7.97;;;;;;;;;;8535178;27;20054;-83
2022/03/21 10:27:31;;;;;;;15.65;8.15;;;;;;;;;;8535365;27;20454;-84
2022/03/21 10:31:36;;;;;;;12.88;7.32;;;;;;;;;;8535059;27;20049;-84
2022/03/21 10:35:47;;;;;;;27.52;11.02;;;;;;;;;;8534786;27;20053;-92
2022/03/21 10:39:53;;;;;;;14.05;8.05;;;;;;;;;;8535265;27;20440;-84
2022/03/21 10:43:57;;;;;;;14.38;7.57;;;;;;;;;;8533319;27;20070;-84
2022/03/21 10:47:59;;;;;;;16.83;8.07;;;;;;;;;;8534466;27;20046;-84
2022/03/21 10:52:06;;;;;;;26.92;10.48;;;;;;;;;;8519560;27;20440;-83
2022/03/21 10:56:11;;;;;;;24.05;10.70;;;;;;;;;;8500041;27;20054;-83
2022/03/21 11:00:20;;;;;;;17.85;8.35;;;;;;;;;;8499743;27;20043;-83
2022/03/21 11:04:23;;;;;;;15.90;7.85;;;;;;;;;;8499531;27;20076;-84
2022/03/21 11:08:28;;;;;;;16.75;8.93;;;;;;;;;;8499773;27;20462;-84
2022/03/21 11:12:31;;;;;;;16.02;8.82;;;;;;;;;;8499341;27;20074;-83
2022/03/21 11:16:38;;;;;;;16.05;8.88;;;;;;;;;;8499254;27;20047;-84
2022/03/21 11:20:42;;;;;;;18.15;10.70;;;;;;;;;;8499395;27;20401;-84
2022/03/21 11:24:46;;;;;;;24.95;9.05;;;;;;;;;;8498995;27;20084;-82
2022/03/21 11:29:17;;;;;;;16.90;8.75;;;;;;;;;;8498920;27;20054;-83
2022/03/21 11:33:33;;;;;;;20.90;10.40;;;;;;;;;;8498179;27;20047;-82
2022/03/21 11:37:37;;;;;;;17.70;9.25;;;;;;;;;;8498598;27;20039;-83
2022/03/21 11:41:58;;;;;;;19.63;10.27;;;;;;;;;;8498534;27;20078;-83
2022/03/21 11:46:25;;;;;;;20.70;10.63;;;;;;;;;;8498362;27;20539;-81
2022/03/21 11:50:29;;;;;;;21.77;11.63;;;;;;;;;;8498236;27;20096;-83
2022/03/21 11:54:34;;;;;;;19.50;9.73;;;;;;;;;;8462347;27;20070;-83
2022/03/21 11:58:48;;;;;;;19.50;10.38;;;;;;;;;;8498287;27;20051;-83
2022/03/21 12:02:57;;;;;;;23.08;10.55;;;;;;;;;;8497516;27;20050;-83
2022/03/21 12:07:28;;;;;;;21.63;11.18;;;;;;;;;;8498253;27;20489;-83
2022/03/21 12:12:05;;;;;;;17.50;9.45;;;;;;;;;;8497788;28;20126;-83
2022/03/21 12:16:20;;;;;;;21.17;10.13;;;;;;;;;;8497771;28;20039;-83
2022/03/21 12:20:24;;;;;;;17.50;9.20;;;;;;;;;;8497602;28;20047;-84
2022/03/21 12:24:26;;;;;;;16.23;9.45;;;;;;;;;;8497459;28;20047;-83
2022/03/21 12:32:52;;;;;;;18.77;9.77;;;;;;;;;;8498214;27;20097;-84
2022/03/21 12:36:55;;;;;;;19.10;10.85;;;;;;;;;;8506149;27;20039;-84
2022/03/21 12:41:02;;;;;;;16.48;9.30;;;;;;;;;;8500878;27;20095;-85
2022/03/21 12:45:23;;;;;;;18.75;9.38;;;;;;;;;;8519272;27;20070;-85
2022/03/21 12:49:48;;;;;;;15.90;8.70;;;;;;;;;;8512717;27;20039;-84
2022/03/21 12:53:57;;;;;;;20.17;9.13;;;;;;;;;;8518711;27;20043;-84
2022/03/21 12:58:04;;;;;;;17.25;8.75;;;;;;;;;;8505949;27;20055;-84
2022/03/21 13:02:24;;;;;;;16.95;9.30;;;;;;;;;;8507903;27;20043;-84
2022/03/21 13:11:02;;;;;;;16.73;8.77;;;;;;;;;;8514713;27;20381;-84
2022/03/21 13:15:10;;;;;;;15.05;8.45;;;;;;;;;;8525417;27;20406;-84
2022/03/21 13:19:20;;;;;;;19.40;8.85;;;;;;;;;;8529309;27;20535;-86
2022/03/21 13:23:24;;;;;;;36.30;13.90;;;;;;;;;;8495477;27;20494;-83
2022/03/21 13:27:36;;;;;;;29.75;14.13;;;;;;;;;;8532048;27;20522;-83
2022/03/21 13:31:39;;;;;;;15.25;8.52;;;;;;;;;;8535190;27;20043;-83
2022/03/21 13:35:52;;;;;;;17.42;9.07;;;;;;;;;;8536146;27;20046;-83
2022/03/21 13:40:00;;;;;;;13.82;7.88;;;;;;;;;;8536219;27;20379;-83
2022/03/21 13:44:05;;;;;;;24.73;10.88;;;;;;;;;;8536070;27;20479;-83
2022/03/21 13:48:07;;;;;;;16.90;8.80;;;;;;;;;;8536313;27;20050;-84
2022/03/21 13:52:10;;;;;;;16.35;7.93;;;;;;;;;;8535793;27;20043;-84
2022/03/21 13:56:16;;;;;;;15.07;8.23;;;;;;;;;;8535932;27;20046;-84
2022/03/21 14:00:26;;;;;;;21.90;10.50;;;;;;;;;;8536073;27;20042;-83
2022/03/21 14:04:33;;;;;;;12.85;6.90;;;;;;;;;;8535329;27;20046;-84
2022/03/21 14:08:36;;;;;;;20.17;8.65;;;;;;;;;;8535582;27;20049;-83
2022/03/21 14:12:42;;;;;;;14.85;8.27;;;;;;;;;;8535382;27;20162;-83
2022/03/21 14:16:45;;;;;;;15.07;6.80;;;;;;;;;;8535594;27;20045;-84
2022/03/21 14:20:48;;;;;;;12.27;6.88;;;;;;;;;;8534502;27;20091;-83
2022/03/21 14:24:51;;;;;;;13.07;7.10;;;;;;;;;;8534710;27;20051;-83
2022/03/21 14:28:55;;;;;;;12.30;6.03;;;;;;;;;;8534853;27;20505;-84
2022/03/21 14:32:58;;;;;;;11.85;6.93;;;;;;;;;;8534571;27;20042;-83
2022/03/21 14:37:01;;;;;;;12.82;6.63;;;;;;;;;;8533120;27;20047;-83
2022/03/21 14:41:05;;;;;;;16.58;7.28;;;;;;;;;;8530379;27;20069;-83
2022/03/21 14:45:12;;;;;;;13.52;7.35;;;;;;;;;;8526395;27;20179;-84
2022/03/21 14:49:15;;;;;;;18.02;8.75;;;;;;;;;;8519136;27;20080;-83
2022/03/21 14:53:17;;;;;;;15.77;8.25;;;;;;;;;;8514781;27;20405;-83
2022/03/21 14:57:20;;;;;;;13.43;7.30;;;;;;;;;;8507169;27;20042;-92
2022/03/21 15:01:30;;;;;;;12.13;7.22;;;;;;;;;;8506595;27;20087;-84
2022/03/21 15:05:40;;;;;;;;;;;;;;;;;;8505337;27;20055;-83
2022/03/21 15:14:13;;;;;;;14.60;7.05;;;;;;;;;;8530691;27;20594;-83
2022/03/21 15:18:20;;;;;;;13.40;7.33;;;;;;;;;;8567874;27;20038;-83
2022/03/21 15:22:43;;;;;;;14.32;7.40;;;;;;;;;;8506913;27;20066;-84
2022/03/21 15:26:47;;;;;;;26.27;11.30;;;;;;;;;;8515628;27;20408;-84
2022/03/21 15:31:02;;;;;;;20.83;9.60;;;;;;;;;;8498074;27;20070;-84
2022/03/21 15:35:22;;;;;;;15.97;8.03;;;;;;;;;;8498525;27;20050;-84
2022/03/21 15:44:07;;;;;;;13.63;7.30;;;;;;;;;;8499687;27;20031;-84
2022/03/21 15:48:24;;;;;;;13.70;6.53;;;;;;;;;;8510039;27;20035;-83
2022/03/21 15:52:46;;;;;;;14.52;8.25;;;;;;;;;;8504714;27;20062;-83
2022/03/21 15:57:06;;;;;;;16.35;7.70;;;;;;;;;;8499063;27;20039;-84
2022/03/21 16:01:21;;;;;;;14.15;6.90;;;;;;;;;;8498464;27;20554;-83
2022/03/21 16:05:39;;;;;;;22.13;9.35;;;;;;;;;;8498034;27;20180;-84
2022/03/21 16:10:00;;;;;;;11.20;6.07;;;;;;;;;;8497118;27;20035;-84
2022/03/21 16:14:22;;;;;;;14.70;7.60;;;;;;;;;;8500135;27;20039;-84
2022/03/21 16:18:39;;;;;;;20.23;7.93;;;;;;;;;;8498114;27;20047;-83
2022/03/21 16:22:52;;;;;;;14.65;7.43;;;;;;;;;;8496369;27;20035;-88
2022/03/21 16:27:29;;;;;;;19.80;7.95;;;;;;;;;;8496664;27;20043;-85
2022/03/21 16:31:48;;;;;;;15.60;7.68;;;;;;;;;;8507106;27;20043;-86
2022/03/21 16:36:04;;;;;;;14.70;6.57;;;;;;;;;;8496525;27;20043;-83
2022/03/21 16:40:12;;;;;;;18.60;8.35;;;;;;;;;;8502520;27;20039;-92
2022/03/21 16:44:18;;;;;;;15.75;7.47;;;;;;;;;;8505842;27;20039;-88
2022/03/21 16:48:24;;;;;;;15.98;8.40;;;;;;;;;;8513328;27;20043;-84
2022/03/21 16:52:34;;;;;;;21.90;8.30;;;;;;;;;;8536211;27;20039;-83
2022/03/21 16:56:42;;;;;;;18.13;8.52;;;;;;;;;;8537548;27;20039;-82
2022/03/21 17:00:50;;;;;;;18.63;7.68;;;;;;;;;;8515299;27;20240;-82
2022/03/21 17:04:54;;;;;;;23.65;9.32;;;;;;;;;;8503056;27;20058;-82
2022/03/21 17:08:58;;;;;;;18.55;10.27;;;;;;;;;;8503217;27;20047;-82
2022/03/21 17:13:04;;;;;;;22.10;10.32;;;;;;;;;;8503219;27;20039;-82
2022/03/21 17:17:13;;;;;;;21.80;11.45;;;;;;;;;;8502625;27;20126;-82
2022/03/21 17:25:41;;;;;;;25.77;11.70;;;;;;;;;;8502947;27;20062;-82
2022/03/21 17:29:48;;;;;;;28.70;13.50;;;;;;;;;;8502704;27;20047;-82
2022/03/21 17:33:55;;;;;;;29.92;13.85;;;;;;;;;;8502560;27;20046;-82
2022/03/21 17:38:05;;;;;;;28.73;11.80;;;;;;;;;;8502564;27;20043;-81
2022/03/21 17:42:10;;;;;;;23.48;12.27;;;;;;;;;;8507478;27;20047;-82
2022/03/21 17:46:18;;;;;;;43.28;22.33;;;;;;;;;;8536142;27;20073;-82
2022/03/21 17:50:26;;;;;;;45.95;18.55;;;;;;;;;;8518047;27;20091;-82
2022/03/21 17:54:32;;;;;;;25.58;12.32;;;;;;;;;;8530738;27;20058;-82
2022/03/21 17:58:43;;;;;;;26.30;14.63;;;;;;;;;;8510381;27;20035;-82
2022/03/21 18:02:53;;;;;;;22.80;11.90;;;;;;;;;;8512703;27;20043;-82
2022/03/21 18:07:04;;;;;;;31.58;15.82;;;;;;;;;;8512210;27;20402;-82
2022/03/21 18:11:09;;;;;;;20.38;10.82;;;;;;;;;;8520623;27;20142;-82
2022/03/21 18:15:17;;;;;;;41.33;21.55;;;;;;;;;;8507368;27;20062;-82
2022/03/21 18:24:03;;;;;;;19.73;11.73;;;;;;;;;;8533769;27;20049;-81
2022/03/21 18:28:07;;;;;;;24.58;14.15;;;;;;;;;;8515689;27;20043;-81
2022/03/21 18:32:11;;;;;;;28.25;15.20;;;;;;;;;;8535334;27;20461;-81
2022/03/21 18:36:14;;;;;;;35.35;16.13;;;;;;;;;;8534696;27;20042;-81
2022/03/21 18:40:20;;;;;;;18.25;9.50;;;;;;;;;;8534471;27;20405;-81
2022/03/21 18:44:24;;;;;;;15.50;7.15;;;;;;;;;;8512628;27;20456;-81
2022/03/21 18:48:27;;;;;;;25.08;10.95;;;;;;;;;;8530205;27;20057;-89
2022/03/21 18:52:32;;;;;;;13.38;6.90;;;;;;;;;;8513207;27;20393;-81
2022/03/21 18:56:40;;;;;;;47.15;22.52;;;;;;;;;;8533759;27;20064;-81
2022/03/21 19:00:45;;;;;;;99.05;36.58;;;;;;;;;;8533918;27;20042;-81
2022/03/21 19:04:53;;;;;;;76.38;36.05;;;;;;;;;;8532815;27;20061;-81
2022/03/21 19:09:01;;;;;;;27.55;13.80;;;;;;;;;;8533738;27;20042;-81
2022/03/21 19:13:06;;;;;;;48.50;21.27;;;;;;;;;;8533716;27;20095;-81
2022/03/21 19:17:09;;;;;;;37.95;19.00;;;;;;;;;;8533381;27;20057;-81
2022/03/21 19:21:15;;;;;;;42.97;17.75;;;;;;;;;;8533206;27;20050;-81
2022/03/21 19:25:23;;;;;;;75.25;34.45;;;;;;;;;;8533450;27;20058;-81
2022/03/21 19:29:29;;;;;;;59.80;26.45;;;;;;;;;;8530942;27;20050;-81
2022/03/21 19:33:34;;;;;;;45.03;18.00;;;;;;;;;;8498644;27;20108;-80
2022/03/21 19:37:38;;;;;;;90.75;27.20;;;;;;;;;;8498659;27;20049;-81
2022/03/21 19:41:43;;;;;;;41.47;18.05;;;;;;;;;;8509314;27;20039;-81
2022/03/21 19:45:55;;;;;;;29.42;14.20;;;;;;;;;;8499313;27;20051;-81
2022/03/21 19:50:05;;;;;;;51.00;20.15;;;;;;;;;;8498367;27;20043;-81
2022/03/21 19:54:12;;;;;;;38.17;14.38;;;;;;;;;;8498019;27;20482;-82
2022/03/21 19:58:22;;;;;;;32.53;14.82;;;;;;;;;;8503608;27;20047;-81
2022/03/21 20:02:36;;;;;;;27.95;11.98;;;;;;;;;;8498538;27;20051;-83
2022/03/21 20:06:45;;;;;;;25.90;12.48;;;;;;;;;;8531182;27;20054;-81
2022/03/21 20:10:54;;;;;;;24.98;12.85;;;;;;;;;;8532589;27;20133;-81
2022/03/21 20:15:15;;;;;;;32.70;13.82;;;;;;;;;;8531942;27;20053;-81
2022/03/21 20:19:34;;;;;;;24.63;11.98;;;;;;;;;;8504077;27;20049;-90
2022/03/21 20:23:41;;;;;;;32.65;12.70;;;;;;;;;;8532759;27;20043;-90
2022/03/21 20:27:52;;;;;;;30.45;11.65;;;;;;;;;;8532708;27;20039;-91
2022/03/21 20:32:00;;;;;;;24.63;11.73;;;;;;;;;;8530960;27;20039;-80
2022/03/21 20:36:06;;;;;;;31.42;13.43;;;;;;;;;;8516294;27;20643;-81
2022/03/21 20:40:11;;;;;;;27.48;14.18;;;;;;;;;;8520206;27;20035;-87
2022/03/21 20:44:14;;;;;;;33.72;14.45;;;;;;;;;;8507492;27;20466;-81
2022/03/21 20:48:18;;;;;;;50.42;25.10;;;;;;;;;;8503623;27;20039;-81
2022/03/21 20:52:25;;;;;;;90.70;40.20;;;;;;;;;;8495891;28;20043;-80
2022/03/21 20:56:28;;;;;;;63.58;32.10;;;;;;;;;;8497297;28;20498;-80
2022/03/21 21:00:33;;;;;;;36.45;16.38;;;;;;;;;;8496744;28;20046;-80
2022/03/21 21:04:37;;;;;;;48.38;17.95;;;;;;;;;;8496770;28;20119;-80
2022/03/21 21:08:42;;;;;;;36.80;16.00;;;;;;;;;;8497524;28;20505;-80
2022/03/21 21:12:45;;;;;;;26.00;13.10;;;;;;;;;;8496694;28;20051;-80
2022/03/21 21:16:48;;;;;;;27.98;13.40;;;;;;;;;;8496913;28;20043;-80
2022/03/21 21:20:54;;;;;;;42.10;16.67;;;;;;;;;;8496807;28;20501;-80
2022/03/21 21:24:59;;;;;;;41.40;16.38;;;;;;;;;;8496654;28;20079;-80
2022/03/21 21:29:02;;;;;;;79.25;34.67;;;;;;;;;;8499544;27;20475;-80
2022/03/21 21:33:06;;;;;;;49.05;21.50;;;;;;;;;;8502599;27;20406;-80
2022/03/21 21:37:09;;;;;;;45.90;20.20;;;;;;;;;;8502574;27;20051;-80
2022/03/21 21:41:14;;;;;;;54.15;22.50;;;;;;;;;;8502425;27;20433;-80
2022/03/21 21:45:17;;;;;;;37.95;14.95;;;;;;;;;;8502260;27;20058;-80
2022/03/21 21:49:22;;;;;;;45.33;22.92;;;;;;;;;;8502138;27;20047;-80
2022/03/21 21:53:25;;;;;;;52.40;22.13;;;;;;;;;;8502421;27;20046;-81
2022/03/21 21:57:31;;;;;;;46.72;18.88;;;;;;;;;;8502631;27;20475;-80
2022/03/21 22:01:33;;;;;;;42.85;16.95;;;;;;;;;;8501788;27;20043;-89
2022/03/21 22:05:36;;;;;;;35.78;14.88;;;;;;;;;;8501500;27;20055;-80
2022/03/21 22:09:39;;;;;;;52.78;19.00;;;;;;;;;;8501479;27;20042;-80
2022/03/21 22:13:45;;;;;;;41.05;16.73;;;;;;;;;;8501376;27;20050;-81
2022/03/21 22:17:48;;;;;;;38.40;15.45;;;;;;;;;;8501246;27;20043;-81
2022/03/21 22:21:50;;;;;;;42.90;14.48;;;;;;;;;;8501118;27;20053;-80
2022/03/21 22:25:53;;;;;;;38.13;15.73;;;;;;;;;;8500955;27;20039;-81
2022/03/21 22:29:57;;;;;;;35.92;16.13;;;;;;;;;;8500847;27;20071;-81
2022/03/21 22:34:03;;;;;;;36.03;15.38;;;;;;;;;;8500687;27;20129;-81
2022/03/21 22:38:05;;;;;;;35.20;13.85;;;;;;;;;;8500590;27;20060;-81
2022/03/21 22:50:50;;;;;;;41.03;16.67;;;;;;;;;;8500118;27;20050;-81
2022/03/21 22:54:53;;;;;;;36.42;15.82;;;;;;;;;;8523842;27;20046;-81
2022/03/21 22:58:56;;;;;;;33.15;13.52;;;;;;;;;;8534198;27;20042;-81
2022/03/21 23:03:00;;;;;;;39.45;14.23;;;;;;;;;;8533832;27;20099;-81
2022/03/21 23:07:05;;;;;;;39.05;13.73;;;;;;;;;;8509465;27;20043;-81
2022/03/21 23:11:07;;;;;;;26.75;13.13;;;;;;;;;;8498981;27;20055;-81
2022/03/21 23:15:10;;;;;;;35.47;14.85;;;;;;;;;;8525164;27;20046;-81
2022/03/21 23:19:14;;;;;;;;;;;;;;;;;;8534056;27;20046;-81
2022/03/21 23:23:16;;;;;;;35.95;15.18;;;;;;;;;;8511470;27;19919;-82
2022/03/21 23:27:19;;;;;;;33.42;14.82;;;;;;;;;;8499016;27;20039;-81
2022/03/21 23:31:21;;;;;;;40.40;15.88;;;;;;;;;;8498824;27;20050;-81
2022/03/21 23:35:25;;;;;;;40.75;15.57;;;;;;;;;;8498822;27;20095;-81
2022/03/21 23:42:19;;;;;;;37.95;15.82;;;;;;;;;;8498701;27;20079;-81
2022/03/21 23:43:50;;;;;;;33.15;15.35;;;;;;;;;;8526923;27;20077;-81
2022/03/21 23:47:53;;;;;;;38.55;16.30;;;;;;;;;;8532690;27;20043;-81
2022/03/21 23:51:57;;;;;;;;;;;;;;;;;;8532882;27;20047;-81
2022/03/21 23:56:00;;;;;;;33.13;13.63;;;;;;;;;;8532575;27;19923;-81
